Main page
METAR-TAF:

Airports :

London, England

London City Airport

latitude: 51-30N, longitude: 000-03E, elevation: 5 m

Current weather observation

The report was made 35 minutes ago, at 17:20 UTC
Wind 7 kt from the North/Northwest, varying between West/Northwest and North
Temperature 23°C
Humidity 44%
Pressure 1022 hPa
Visibility 10 km or more
no clouds below 1500 m and no cumulonimbus

METAR: EGLC 291720Z 33007KT 290V350 CAVOK 23/10 Q1022

Time: 18:55 (17:55 UTC)

Forecast

The report was made 58 minutes ago, at 16:57 UTC
Forecast valid from 29 at 18 UTC to 29 at 21 UTC
Wind 4 kt from variable directions
Visibility 10 km or more
Few clouds at a height of 4000 ft

TAF: EGLC 291657Z 2918/2921 VRB04KT 9999 FEW040

METAR-TAF

Weather observations and forecasts of more than 4000 airports (METAR and TAF reports).

The available stations are represented by yellow and red dots on the map.

Hover mouse over dot to see the name of the station.

Then click to see weather observations and forecasts.

To change the map : click on the green buttons with a black cross to zoom in, on the green button with a dash to zoom out, or on the green arrows for adjacent maps.


METAR-TAF: